sensor_id;sensor_type;location;lat;lon;timestamp;P1;durP1;ratioP1;P2;durP2;ratioP2
3831;SDS011;12460;42.662;23.288;2023-01-13T00:14:16;7.07;;;5.80;;
3831;SDS011;12460;42.662;23.288;2023-01-13T00:29:20;8.03;;;5.73;;
3831;SDS011;12460;42.662;23.288;2023-01-13T00:44:25;6.27;;;5.47;;
3831;SDS011;12460;42.662;23.288;2023-01-13T00:59:29;5.80;;;5.07;;
3831;SDS011;12460;42.662;23.288;2023-01-13T01:14:34;6.50;;;5.77;;
3831;SDS011;12460;42.662;23.288;2023-01-13T01:29:38;6.30;;;5.70;;
3831;SDS011;12460;42.662;23.288;2023-01-13T01:59:47;7.70;;;5.70;;
3831;SDS011;12460;42.662;23.288;2023-01-13T02:14:52;7.67;;;6.17;;
3831;SDS011;12460;42.662;23.288;2023-01-13T02:30:16;7.57;;;5.17;;
3831;SDS011;12460;42.662;23.288;2023-01-13T02:45:46;6.67;;;5.30;;
3831;SDS011;12460;42.662;23.288;2023-01-13T03:00:52;6.50;;;5.30;;
3831;SDS011;12460;42.662;23.288;2023-01-13T03:31:21;5.73;;;5.13;;
3831;SDS011;12460;42.662;23.288;2023-01-13T04:02:12;6.93;;;4.70;;
3831;SDS011;12460;42.662;23.288;2023-01-13T04:17:18;6.30;;;5.20;;
3831;SDS011;12460;42.662;23.288;2023-01-13T04:32:24;5.90;;;4.93;;
3831;SDS011;12460;42.662;23.288;2023-01-13T04:47:28;6.60;;;5.60;;
3831;SDS011;12460;42.662;23.288;2023-01-13T05:02:32;5.90;;;5.27;;
3831;SDS011;12460;42.662;23.288;2023-01-13T05:17:37;5.77;;;5.23;;
3831;SDS011;12460;42.662;23.288;2023-01-13T05:32:42;8.90;;;6.80;;
3831;SDS011;12460;42.662;23.288;2023-01-13T05:47:47;8.87;;;7.33;;
3831;SDS011;12460;42.662;23.288;2023-01-13T06:02:51;9.80;;;7.57;;
3831;SDS011;12460;42.662;23.288;2023-01-13T06:17:56;10.83;;;8.37;;
3831;SDS011;12460;42.662;23.288;2023-01-13T06:33:00;12.13;;;8.10;;
3831;SDS011;12460;42.662;23.288;2023-01-13T06:48:07;14.93;;;9.40;;
3831;SDS011;12460;42.662;23.288;2023-01-13T07:03:12;12.00;;;8.23;;
3831;SDS011;12460;42.662;23.288;2023-01-13T07:18:16;15.33;;;10.53;;
3831;SDS011;12460;42.662;23.288;2023-01-13T07:33:20;11.20;;;8.20;;
3831;SDS011;12460;42.662;23.288;2023-01-13T07:48:26;8.90;;;7.10;;
3831;SDS011;12460;42.662;23.288;2023-01-13T08:03:31;9.40;;;6.97;;
3831;SDS011;12460;42.662;23.288;2023-01-13T08:18:35;10.10;;;7.43;;
3831;SDS011;12460;42.662;23.288;2023-01-13T08:33:40;9.13;;;6.70;;
3831;SDS011;12460;42.662;23.288;2023-01-13T08:48:45;8.03;;;6.60;;
3831;SDS011;12460;42.662;23.288;2023-01-13T09:03:49;10.47;;;7.37;;
3831;SDS011;12460;42.662;23.288;2023-01-13T09:18:54;9.87;;;6.47;;
3831;SDS011;12460;42.662;23.288;2023-01-13T09:33:59;4.93;;;4.43;;
3831;SDS011;12460;42.662;23.288;2023-01-13T09:49:24;5.60;;;5.10;;
3831;SDS011;12460;42.662;23.288;2023-01-13T10:04:30;5.97;;;5.00;;
3831;SDS011;12460;42.662;23.288;2023-01-13T10:19:42;7.20;;;5.10;;
3831;SDS011;12460;42.662;23.288;2023-01-13T10:34:49;5.97;;;5.37;;
3831;SDS011;12460;42.662;23.288;2023-01-13T10:50:02;2.87;;;2.60;;
3831;SDS011;12460;42.662;23.288;2023-01-13T11:05:14;3.70;;;3.37;;
3831;SDS011;12460;42.662;23.288;2023-01-13T11:20:22;4.10;;;3.80;;
3831;SDS011;12460;42.662;23.288;2023-01-13T11:35:44;6.20;;;5.10;;
3831;SDS011;12460;42.662;23.288;2023-01-13T11:50:54;6.10;;;5.40;;
3831;SDS011;12460;42.662;23.288;2023-01-13T12:06:20;8.03;;;6.50;;
3831;SDS011;12460;42.662;23.288;2023-01-13T12:21:27;10.00;;;6.90;;
3831;SDS011;12460;42.662;23.288;2023-01-13T13:22:42;6.20;;;5.60;;
3831;SDS011;12460;42.662;23.288;2023-01-13T13:53:19;6.60;;;5.77;;
3831;SDS011;12460;42.662;23.288;2023-01-13T14:08:25;8.20;;;6.67;;
3831;SDS011;12460;42.662;23.288;2023-01-13T14:23:31;6.70;;;6.10;;
3831;SDS011;12460;42.662;23.288;2023-01-13T14:38:35;6.43;;;5.60;;
3831;SDS011;12460;42.662;23.288;2023-01-13T14:53:44;6.70;;;6.00;;
3831;SDS011;12460;42.662;23.288;2023-01-13T15:08:50;13.23;;;9.20;;
3831;SDS011;12460;42.662;23.288;2023-01-13T15:23:55;13.43;;;9.60;;
3831;SDS011;12460;42.662;23.288;2023-01-13T15:39:00;16.77;;;11.10;;
3831;SDS011;12460;42.662;23.288;2023-01-13T15:54:08;17.03;;;10.47;;
3831;SDS011;12460;42.662;23.288;2023-01-13T16:09:13;17.03;;;12.10;;
3831;SDS011;12460;42.662;23.288;2023-01-13T16:24:18;21.20;;;14.73;;
3831;SDS011;12460;42.662;23.288;2023-01-13T16:39:22;21.90;;;15.57;;
3831;SDS011;12460;42.662;23.288;2023-01-13T16:54:27;22.67;;;13.97;;
3831;SDS011;12460;42.662;23.288;2023-01-13T17:09:32;22.47;;;15.07;;
3831;SDS011;12460;42.662;23.288;2023-01-13T17:24:37;30.13;;;19.00;;
3831;SDS011;12460;42.662;23.288;2023-01-13T17:39:42;22.60;;;15.33;;
3831;SDS011;12460;42.662;23.288;2023-01-13T17:54:47;25.20;;;16.00;;
3831;SDS011;12460;42.662;23.288;2023-01-13T18:09:52;19.90;;;11.80;;
3831;SDS011;12460;42.662;23.288;2023-01-13T18:24:57;15.10;;;10.03;;
3831;SDS011;12460;42.662;23.288;2023-01-13T18:40:24;15.77;;;10.67;;
3831;SDS011;12460;42.662;23.288;2023-01-13T18:55:28;15.27;;;10.70;;
3831;SDS011;12460;42.662;23.288;2023-01-13T19:10:32;13.90;;;10.63;;
3831;SDS011;12460;42.662;23.288;2023-01-13T19:25:39;17.90;;;11.80;;
3831;SDS011;12460;42.662;23.288;2023-01-13T19:40:50;27.67;;;16.13;;
3831;SDS011;12460;42.662;23.288;2023-01-13T19:55:55;21.00;;;15.10;;
3831;SDS011;12460;42.662;23.288;2023-01-13T20:11:00;26.30;;;17.50;;
3831;SDS011;12460;42.662;23.288;2023-01-13T20:26:24;28.53;;;18.40;;
3831;SDS011;12460;42.662;23.288;2023-01-13T20:41:30;20.57;;;15.60;;
3831;SDS011;12460;42.662;23.288;2023-01-13T20:56:53;18.00;;;12.13;;
3831;SDS011;12460;42.662;23.288;2023-01-13T21:11:57;22.03;;;15.70;;
3831;SDS011;12460;42.662;23.288;2023-01-13T21:27:21;23.70;;;16.40;;
3831;SDS011;12460;42.662;23.288;2023-01-13T21:42:26;26.10;;;17.87;;
3831;SDS011;12460;42.662;23.288;2023-01-13T21:57:51;32.20;;;21.93;;
3831;SDS011;12460;42.662;23.288;2023-01-13T22:12:57;31.50;;;20.57;;
3831;SDS011;12460;42.662;23.288;2023-01-13T22:28:01;27.87;;;16.93;;
3831;SDS011;12460;42.662;23.288;2023-01-13T22:43:09;33.63;;;18.67;;
3831;SDS011;12460;42.662;23.288;2023-01-13T22:58:13;26.57;;;17.80;;
3831;SDS011;12460;42.662;23.288;2023-01-13T23:13:18;28.90;;;18.60;;
3831;SDS011;12460;42.662;23.288;2023-01-13T23:28:23;30.97;;;18.10;;
3831;SDS011;12460;42.662;23.288;2023-01-13T23:43:27;27.37;;;16.60;;
3831;SDS011;12460;42.662;23.288;2023-01-13T23:58:32;30.90;;;19.77;;
